sensor_id;sensor_type;location;lat;lon;timestamp;temperature;humidity
23471;DHT22;11908;50.806;4.424;2022-08-20T00:00:24;19.10;99.90
23471;DHT22;11908;50.806;4.424;2022-08-20T00:02:56;19.10;99.90
23471;DHT22;11908;50.806;4.424;2022-08-20T00:05:29;19.10;99.90
23471;DHT22;11908;50.806;4.424;2022-08-20T00:07:56;19.10;99.90
23471;DHT22;11908;50.806;4.424;2022-08-20T00:10:24;19.10;99.90
23471;DHT22;11908;50.806;4.424;2022-08-20T00:12:50;19.10;99.90
23471;DHT22;11908;50.806;4.424;2022-08-20T00:15:18;19.10;99.90
23471;DHT22;11908;50.806;4.424;2022-08-20T00:17:49;18.90;99.90
23471;DHT22;11908;50.806;4.424;2022-08-20T00:20:16;18.90;99.90
23471;DHT22;11908;50.806;4.424;2022-08-20T00:22:42;18.80;99.90
23471;DHT22;11908;50.806;4.424;2022-08-20T00:25:08;18.80;99.90
23471;DHT22;11908;50.806;4.424;2022-08-20T00:27:35;18.80;99.90
23471;DHT22;11908;50.806;4.424;2022-08-20T00:30:01;18.70;99.90
23471;DHT22;11908;50.806;4.424;2022-08-20T00:32:27;18.70;99.90
23471;DHT22;11908;50.806;4.424;2022-08-20T00:34:52;18.70;99.90
23471;DHT22;11908;50.806;4.424;2022-08-20T00:37:18;18.60;99.90
23471;DHT22;11908;50.806;4.424;2022-08-20T00:39:44;18.70;99.90
23471;DHT22;11908;50.806;4.424;2022-08-20T00:42:09;18.70;99.90
23471;DHT22;11908;50.806;4.424;2022-08-20T00:44:35;18.60;99.90
23471;DHT22;11908;50.806;4.424;2022-08-20T00:47:01;18.60;99.90
23471;DHT22;11908;50.806;4.424;2022-08-20T00:49:29;18.40;99.90
23471;DHT22;11908;50.806;4.424;2022-08-20T00:52:11;18.40;99.90
23471;DHT22;11908;50.806;4.424;2022-08-20T00:54:41;18.30;99.90
23471;DHT22;11908;50.806;4.424;2022-08-20T00:57:11;18.40;99.90
23471;DHT22;11908;50.806;4.424;2022-08-20T00:59:39;18.30;99.90
23471;DHT22;11908;50.806;4.424;2022-08-20T01:02:09;18.40;99.90
23471;DHT22;11908;50.806;4.424;2022-08-20T01:04:36;18.30;99.90
23471;DHT22;11908;50.806;4.424;2022-08-20T01:07:04;18.30;99.90
23471;DHT22;11908;50.806;4.424;2022-08-20T01:09:30;18.30;99.90
23471;DHT22;11908;50.806;4.424;2022-08-20T01:11:56;18.40;99.90
23471;DHT22;11908;50.806;4.424;2022-08-20T01:14:22;18.30;99.90
23471;DHT22;11908;50.806;4.424;2022-08-20T01:16:57;18.20;99.90
23471;DHT22;11908;50.806;4.424;2022-08-20T01:19:32;18.20;99.90
23471;DHT22;11908;50.806;4.424;2022-08-20T01:22:00;18.10;99.90
23471;DHT22;11908;50.806;4.424;2022-08-20T01:24:48;18.10;99.90
23471;DHT22;11908;50.806;4.424;2022-08-20T01:27:16;18.20;99.90
23471;DHT22;11908;50.806;4.424;2022-08-20T01:29:42;18.20;99.90
23471;DHT22;11908;50.806;4.424;2022-08-20T01:32:09;18.20;99.90
23471;DHT22;11908;50.806;4.424;2022-08-20T01:34:35;18.20;99.90
23471;DHT22;11908;50.806;4.424;2022-08-20T01:37:00;18.10;99.90
23471;DHT22;11908;50.806;4.424;2022-08-20T01:39:30;18.10;99.90
23471;DHT22;11908;50.806;4.424;2022-08-20T01:44:39;18.00;99.90
23471;DHT22;11908;50.806;4.424;2022-08-20T01:49:42;18.00;99.90
23471;DHT22;11908;50.806;4.424;2022-08-20T01:52:11;18.10;99.90
23471;DHT22;11908;50.806;4.424;2022-08-20T01:54:39;18.10;99.90
23471;DHT22;11908;50.806;4.424;2022-08-20T01:57:09;18.20;99.90
23471;DHT22;11908;50.806;4.424;2022-08-20T01:59:36;18.10;99.90
23471;DHT22;11908;50.806;4.424;2022-08-20T02:02:02;18.10;99.90
23471;DHT22;11908;50.806;4.424;2022-08-20T02:04:28;17.90;99.90
23471;DHT22;11908;50.806;4.424;2022-08-20T02:06:59;17.70;99.90
23471;DHT22;11908;50.806;4.424;2022-08-20T02:09:31;17.70;99.90
23471;DHT22;11908;50.806;4.424;2022-08-20T02:11:57;17.70;99.90
23471;DHT22;11908;50.806;4.424;2022-08-20T02:14:24;17.70;99.90
23471;DHT22;11908;50.806;4.424;2022-08-20T02:16:50;17.70;99.90
23471;DHT22;11908;50.806;4.424;2022-08-20T02:19:25;17.70;99.90
23471;DHT22;11908;50.806;4.424;2022-08-20T02:21:55;17.70;99.90
23471;DHT22;11908;50.806;4.424;2022-08-20T02:24:23;17.60;99.90
23471;DHT22;11908;50.806;4.424;2022-08-20T02:26:49;17.60;99.90
23471;DHT22;11908;50.806;4.424;2022-08-20T02:29:15;17.50;99.90
23471;DHT22;11908;50.806;4.424;2022-08-20T02:31:45;17.50;99.90
23471;DHT22;11908;50.806;4.424;2022-08-20T02:34:13;17.60;99.90
23471;DHT22;11908;50.806;4.424;2022-08-20T02:36:40;17.60;99.90
23471;DHT22;11908;50.806;4.424;2022-08-20T02:39:09;17.60;99.90
23471;DHT22;11908;50.806;4.424;2022-08-20T02:41:36;17.50;99.90
23471;DHT22;11908;50.806;4.424;2022-08-20T02:44:03;17.40;99.90
23471;DHT22;11908;50.806;4.424;2022-08-20T02:46:30;17.40;99.90
23471;DHT22;11908;50.806;4.424;2022-08-20T02:48:56;17.40;99.90
23471;DHT22;11908;50.806;4.424;2022-08-20T02:51:22;17.30;99.90
23471;DHT22;11908;50.806;4.424;2022-08-20T02:53:47;17.30;99.90
23471;DHT22;11908;50.806;4.424;2022-08-20T02:56:13;17.20;99.90
23471;DHT22;11908;50.806;4.424;2022-08-20T02:58:40;17.30;99.90
23471;DHT22;11908;50.806;4.424;2022-08-20T03:01:08;17.30;99.90
23471;DHT22;11908;50.806;4.424;2022-08-20T03:03:36;17.30;99.90
23471;DHT22;11908;50.806;4.424;2022-08-20T03:06:03;17.30;99.90
23471;DHT22;11908;50.806;4.424;2022-08-20T03:08:29;17.30;99.90
23471;DHT22;11908;50.806;4.424;2022-08-20T03:10:55;17.30;99.90
23471;DHT22;11908;50.806;4.424;2022-08-20T03:13:22;17.30;99.90
23471;DHT22;11908;50.806;4.424;2022-08-20T03:15:59;17.30;99.90
23471;DHT22;11908;50.806;4.424;2022-08-20T03:18:31;17.20;99.90
23471;DHT22;11908;50.806;4.424;2022-08-20T03:20:57;17.20;99.90
23471;DHT22;11908;50.806;4.424;2022-08-20T03:23:23;17.20;99.90
23471;DHT22;11908;50.806;4.424;2022-08-20T03:25:49;17.10;99.90
23471;DHT22;11908;50.806;4.424;2022-08-20T03:28:15;17.10;99.90
23471;DHT22;11908;50.806;4.424;2022-08-20T03:30:41;17.10;99.90
23471;DHT22;11908;50.806;4.424;2022-08-20T03:33:08;17.10;99.90
23471;DHT22;11908;50.806;4.424;2022-08-20T03:35:35;17.00;99.90
23471;DHT22;11908;50.806;4.424;2022-08-20T03:38:06;17.00;99.90
23471;DHT22;11908;50.806;4.424;2022-08-20T03:40:33;16.90;99.90
23471;DHT22;11908;50.806;4.424;2022-08-20T03:42:59;17.00;99.90
23471;DHT22;11908;50.806;4.424;2022-08-20T03:45:26;17.10;99.90
23471;DHT22;11908;50.806;4.424;2022-08-20T03:47:53;17.10;99.90
23471;DHT22;11908;50.806;4.424;2022-08-20T03:50:25;17.10;99.90
23471;DHT22;11908;50.806;4.424;2022-08-20T03:52:51;17.10;99.90
23471;DHT22;11908;50.806;4.424;2022-08-20T03:55:19;17.00;99.90
23471;DHT22;11908;50.806;4.424;2022-08-20T03:57:48;17.10;99.90
23471;DHT22;11908;50.806;4.424;2022-08-20T04:00:18;17.10;99.90
23471;DHT22;11908;50.806;4.424;2022-08-20T04:02:45;17.20;99.90
23471;DHT22;11908;50.806;4.424;2022-08-20T04:05:11;17.20;99.90
23471;DHT22;11908;50.806;4.424;2022-08-20T04:07:38;17.10;99.90
23471;DHT22;11908;50.806;4.424;2022-08-20T04:10:07;17.10;99.90
23471;DHT22;11908;50.806;4.424;2022-08-20T04:12:35;17.10;99.90
23471;DHT22;11908;50.806;4.424;2022-08-20T04:15:09;17.10;99.90
23471;DHT22;11908;50.806;4.424;2022-08-20T04:17:37;17.10;99.90
23471;DHT22;11908;50.806;4.424;2022-08-20T04:20:05;17.10;99.90
23471;DHT22;11908;50.806;4.424;2022-08-20T04:22:31;17.10;99.90
23471;DHT22;11908;50.806;4.424;2022-08-20T04:24:56;17.10;99.90
23471;DHT22;11908;50.806;4.424;2022-08-20T04:27:22;17.10;99.90
23471;DHT22;11908;50.806;4.424;2022-08-20T04:29:48;17.10;99.90
23471;DHT22;11908;50.806;4.424;2022-08-20T04:32:13;17.10;99.90
23471;DHT22;11908;50.806;4.424;2022-08-20T04:34:39;17.10;99.90
23471;DHT22;11908;50.806;4.424;2022-08-20T04:37:05;17.00;99.90
23471;DHT22;11908;50.806;4.424;2022-08-20T04:39:31;17.00;99.90
23471;DHT22;11908;50.806;4.424;2022-08-20T04:41:58;17.00;99.90
23471;DHT22;11908;50.806;4.424;2022-08-20T04:44:23;17.00;99.90
23471;DHT22;11908;50.806;4.424;2022-08-20T04:46:49;16.90;99.90
23471;DHT22;11908;50.806;4.424;2022-08-20T04:49:15;16.90;99.90
23471;DHT22;11908;50.806;4.424;2022-08-20T04:51:41;16.90;99.90
23471;DHT22;11908;50.806;4.424;2022-08-20T04:54:06;16.90;99.90
23471;DHT22;11908;50.806;4.424;2022-08-20T04:56:34;16.90;99.90
23471;DHT22;11908;50.806;4.424;2022-08-20T04:59:05;16.80;99.90
23471;DHT22;11908;50.806;4.424;2022-08-20T05:01:31;16.80;99.90
23471;DHT22;11908;50.806;4.424;2022-08-20T05:03:58;16.90;99.90
23471;DHT22;11908;50.806;4.424;2022-08-20T05:06:26;17.00;99.90
23471;DHT22;11908;50.806;4.424;2022-08-20T05:08:54;17.10;99.90
23471;DHT22;11908;50.806;4.424;2022-08-20T05:11:21;17.40;99.90
23471;DHT22;11908;50.806;4.424;2022-08-20T05:13:47;17.60;99.90
23471;DHT22;11908;50.806;4.424;2022-08-20T05:16:13;17.80;99.90
23471;DHT22;11908;50.806;4.424;2022-08-20T05:18:39;18.00;99.90
23471;DHT22;11908;50.806;4.424;2022-08-20T05:21:05;18.20;99.90
23471;DHT22;11908;50.806;4.424;2022-08-20T05:23:36;18.60;99.90
23471;DHT22;11908;50.806;4.424;2022-08-20T05:26:04;19.10;99.90
23471;DHT22;11908;50.806;4.424;2022-08-20T05:28:32;19.50;99.90
23471;DHT22;11908;50.806;4.424;2022-08-20T05:31:00;19.90;99.90
23471;DHT22;11908;50.806;4.424;2022-08-20T05:33:26;20.40;99.90
23471;DHT22;11908;50.806;4.424;2022-08-20T05:35:53;20.90;99.90
23471;DHT22;11908;50.806;4.424;2022-08-20T05:38:21;21.40;99.90
23471;DHT22;11908;50.806;4.424;2022-08-20T05:40:48;22.00;99.90
23471;DHT22;11908;50.806;4.424;2022-08-20T05:43:14;22.50;99.90
23471;DHT22;11908;50.806;4.424;2022-08-20T05:45:42;23.00;99.90
23471;DHT22;11908;50.806;4.424;2022-08-20T05:48:13;23.30;99.90
23471;DHT22;11908;50.806;4.424;2022-08-20T05:50:41;23.60;99.90
23471;DHT22;11908;50.806;4.424;2022-08-20T05:53:07;24.00;99.90
23471;DHT22;11908;50.806;4.424;2022-08-20T05:55:34;24.40;99.90
23471;DHT22;11908;50.806;4.424;2022-08-20T05:58:03;24.30;99.90
23471;DHT22;11908;50.806;4.424;2022-08-20T06:00:30;23.40;99.90
23471;DHT22;11908;50.806;4.424;2022-08-20T06:02:57;23.20;99.90
23471;DHT22;11908;50.806;4.424;2022-08-20T06:05:42;22.80;99.90
23471;DHT22;11908;50.806;4.424;2022-08-20T06:08:09;21.90;99.90
23471;DHT22;11908;50.806;4.424;2022-08-20T06:10:36;21.60;99.90
23471;DHT22;11908;50.806;4.424;2022-08-20T06:13:02;21.70;99.90
23471;DHT22;11908;50.806;4.424;2022-08-20T06:15:28;21.40;99.90
23471;DHT22;11908;50.806;4.424;2022-08-20T06:17:54;21.40;99.90
23471;DHT22;11908;50.806;4.424;2022-08-20T06:20:20;21.00;99.90
23471;DHT22;11908;50.806;4.424;2022-08-20T06:22:45;20.90;99.90
23471;DHT22;11908;50.806;4.424;2022-08-20T06:25:11;20.90;99.90
23471;DHT22;11908;50.806;4.424;2022-08-20T06:27:40;21.00;99.90
23471;DHT22;11908;50.806;4.424;2022-08-20T06:30:11;21.10;99.90
23471;DHT22;11908;50.806;4.424;2022-08-20T06:32:37;20.90;99.90
23471;DHT22;11908;50.806;4.424;2022-08-20T06:35:06;20.90;99.90
23471;DHT22;11908;50.806;4.424;2022-08-20T06:37:34;21.00;99.90
23471;DHT22;11908;50.806;4.424;2022-08-20T06:40:04;21.00;99.90
23471;DHT22;11908;50.806;4.424;2022-08-20T06:42:31;20.80;99.90
23471;DHT22;11908;50.806;4.424;2022-08-20T06:44:57;20.60;99.90
23471;DHT22;11908;50.806;4.424;2022-08-20T06:47:24;20.50;99.90
23471;DHT22;11908;50.806;4.424;2022-08-20T06:49:49;20.50;99.90
23471;DHT22;11908;50.806;4.424;2022-08-20T06:52:15;20.40;99.90
23471;DHT22;11908;50.806;4.424;2022-08-20T06:54:43;20.50;99.90
23471;DHT22;11908;50.806;4.424;2022-08-20T06:57:09;20.70;99.90
23471;DHT22;11908;50.806;4.424;2022-08-20T06:59:35;21.00;99.90
23471;DHT22;11908;50.806;4.424;2022-08-20T07:02:01;21.10;99.90
23471;DHT22;11908;50.806;4.424;2022-08-20T07:04:27;21.20;99.90
23471;DHT22;11908;50.806;4.424;2022-08-20T07:06:53;21.40;99.90
23471;DHT22;11908;50.806;4.424;2022-08-20T07:09:20;21.60;99.90
23471;DHT22;11908;50.806;4.424;2022-08-20T07:11:47;21.80;99.90
23471;DHT22;11908;50.806;4.424;2022-08-20T07:14:14;21.80;99.90
23471;DHT22;11908;50.806;4.424;2022-08-20T07:16:40;22.00;99.90
23471;DHT22;11908;50.806;4.424;2022-08-20T07:19:06;22.20;99.90
23471;DHT22;11908;50.806;4.424;2022-08-20T07:21:33;22.50;99.90
23471;DHT22;11908;50.806;4.424;2022-08-20T07:23:59;22.60;99.90
23471;DHT22;11908;50.806;4.424;2022-08-20T07:26:24;22.60;99.90
23471;DHT22;11908;50.806;4.424;2022-08-20T07:28:50;22.40;99.90
23471;DHT22;11908;50.806;4.424;2022-08-20T07:31:16;22.50;99.90
23471;DHT22;11908;50.806;4.424;2022-08-20T07:34:01;22.50;99.90
23471;DHT22;11908;50.806;4.424;2022-08-20T07:36:26;22.90;99.90
23471;DHT22;11908;50.806;4.424;2022-08-20T07:38:52;23.10;99.90
23471;DHT22;11908;50.806;4.424;2022-08-20T07:41:19;23.80;99.90
23471;DHT22;11908;50.806;4.424;2022-08-20T07:43:44;24.80;99.90
23471;DHT22;11908;50.806;4.424;2022-08-20T07:46:12;25.90;99.90
23471;DHT22;11908;50.806;4.424;2022-08-20T07:48:41;27.20;99.90
23471;DHT22;11908;50.806;4.424;2022-08-20T07:51:08;28.10;99.90
23471;DHT22;11908;50.806;4.424;2022-08-20T07:53:36;27.60;99.90
23471;DHT22;11908;50.806;4.424;2022-08-20T07:56:05;28.20;99.90
23471;DHT22;11908;50.806;4.424;2022-08-20T07:58:32;29.90;99.90
23471;DHT22;11908;50.806;4.424;2022-08-20T08:01:00;30.30;99.90
23471;DHT22;11908;50.806;4.424;2022-08-20T08:03:26;30.70;99.90
23471;DHT22;11908;50.806;4.424;2022-08-20T08:05:53;31.20;99.90
23471;DHT22;11908;50.806;4.424;2022-08-20T08:08:22;31.80;99.90
23471;DHT22;11908;50.806;4.424;2022-08-20T08:10:50;31.00;99.90
23471;DHT22;11908;50.806;4.424;2022-08-20T08:13:17;31.30;99.90
23471;DHT22;11908;50.806;4.424;2022-08-20T08:15:46;31.80;99.90
23471;DHT22;11908;50.806;4.424;2022-08-20T08:18:20;32.70;99.90
23471;DHT22;11908;50.806;4.424;2022-08-20T08:20:49;33.10;99.90
23471;DHT22;11908;50.806;4.424;2022-08-20T08:23:20;33.80;99.90
23471;DHT22;11908;50.806;4.424;2022-08-20T08:25:47;34.70;99.90
23471;DHT22;11908;50.806;4.424;2022-08-20T08:28:14;35.10;99.90
23471;DHT22;11908;50.806;4.424;2022-08-20T08:30:40;34.40;99.90
23471;DHT22;11908;50.806;4.424;2022-08-20T08:33:07;34.70;99.90
23471;DHT22;11908;50.806;4.424;2022-08-20T08:36:04;34.50;99.90
23471;DHT22;11908;50.806;4.424;2022-08-20T08:38:34;34.00;99.90
23471;DHT22;11908;50.806;4.424;2022-08-20T08:41:20;34.20;99.90
23471;DHT22;11908;50.806;4.424;2022-08-20T08:43:51;34.70;99.90
23471;DHT22;11908;50.806;4.424;2022-08-20T08:46:21;34.70;99.90
23471;DHT22;11908;50.806;4.424;2022-08-20T08:48:50;33.50;99.90
23471;DHT22;11908;50.806;4.424;2022-08-20T08:51:26;33.00;99.90
23471;DHT22;11908;50.806;4.424;2022-08-20T08:53:54;33.00;99.90
23471;DHT22;11908;50.806;4.424;2022-08-20T08:56:28;32.60;99.90
23471;DHT22;11908;50.806;4.424;2022-08-20T08:59:00;32.30;99.90
23471;DHT22;11908;50.806;4.424;2022-08-20T09:01:27;32.90;99.90
23471;DHT22;11908;50.806;4.424;2022-08-20T09:03:53;33.50;99.90
23471;DHT22;11908;50.806;4.424;2022-08-20T09:06:22;33.50;99.90
23471;DHT22;11908;50.806;4.424;2022-08-20T09:08:51;34.50;99.90
23471;DHT22;11908;50.806;4.424;2022-08-20T09:11:20;34.90;99.90
23471;DHT22;11908;50.806;4.424;2022-08-20T09:13:45;34.60;98.80
23471;DHT22;11908;50.806;4.424;2022-08-20T09:16:11;34.30;99.50
23471;DHT22;11908;50.806;4.424;2022-08-20T09:18:38;33.20;97.70
23471;DHT22;11908;50.806;4.424;2022-08-20T09:21:04;31.90;99.90
23471;DHT22;11908;50.806;4.424;2022-08-20T09:23:31;30.70;99.90
23471;DHT22;11908;50.806;4.424;2022-08-20T09:25:57;30.00;99.90
23471;DHT22;11908;50.806;4.424;2022-08-20T09:28:22;31.10;99.90
23471;DHT22;11908;50.806;4.424;2022-08-20T09:30:48;32.10;99.90
23471;DHT22;11908;50.806;4.424;2022-08-20T09:33:14;32.30;99.90
23471;DHT22;11908;50.806;4.424;2022-08-20T09:35:39;32.00;99.90
23471;DHT22;11908;50.806;4.424;2022-08-20T09:38:06;30.80;99.90
23471;DHT22;11908;50.806;4.424;2022-08-20T09:40:32;30.30;99.90
23471;DHT22;11908;50.806;4.424;2022-08-20T09:42:58;29.50;99.90
23471;DHT22;11908;50.806;4.424;2022-08-20T09:45:23;28.60;99.90
23471;DHT22;11908;50.806;4.424;2022-08-20T09:47:49;29.00;99.90
23471;DHT22;11908;50.806;4.424;2022-08-20T09:50:15;29.10;99.90
23471;DHT22;11908;50.806;4.424;2022-08-20T09:52:43;28.80;99.90
23471;DHT22;11908;50.806;4.424;2022-08-20T09:57:46;27.90;99.90
23471;DHT22;11908;50.806;4.424;2022-08-20T10:00:12;27.20;99.90
23471;DHT22;11908;50.806;4.424;2022-08-20T10:02:38;26.80;99.90
23471;DHT22;11908;50.806;4.424;2022-08-20T10:05:04;27.00;99.90
23471;DHT22;11908;50.806;4.424;2022-08-20T10:07:30;26.40;99.90
23471;DHT22;11908;50.806;4.424;2022-08-20T10:09:56;27.00;99.90
23471;DHT22;11908;50.806;4.424;2022-08-20T10:12:22;27.60;99.90
23471;DHT22;11908;50.806;4.424;2022-08-20T10:14:47;28.50;99.90
23471;DHT22;11908;50.806;4.424;2022-08-20T10:17:13;28.80;99.90
23471;DHT22;11908;50.806;4.424;2022-08-20T10:19:38;29.40;99.90
23471;DHT22;11908;50.806;4.424;2022-08-20T10:22:04;30.50;98.80
23471;DHT22;11908;50.806;4.424;2022-08-20T10:24:30;30.40;97.30
23471;DHT22;11908;50.806;4.424;2022-08-20T10:26:57;29.90;99.00
23471;DHT22;11908;50.806;4.424;2022-08-20T10:29:23;30.00;98.20
23471;DHT22;11908;50.806;4.424;2022-08-20T10:31:49;30.30;97.80
23471;DHT22;11908;50.806;4.424;2022-08-20T10:34:15;30.60;97.00
23471;DHT22;11908;50.806;4.424;2022-08-20T10:36:41;30.70;96.20
23471;DHT22;11908;50.806;4.424;2022-08-20T10:39:07;30.90;96.70
23471;DHT22;11908;50.806;4.424;2022-08-20T10:41:33;32.10;95.80
23471;DHT22;11908;50.806;4.424;2022-08-20T10:43:58;32.00;93.80
23471;DHT22;11908;50.806;4.424;2022-08-20T10:46:24;32.10;94.00
23471;DHT22;11908;50.806;4.424;2022-08-20T10:48:50;32.60;93.20
23471;DHT22;11908;50.806;4.424;2022-08-20T10:51:16;32.30;92.80
23471;DHT22;11908;50.806;4.424;2022-08-20T10:53:42;30.80;92.80
23471;DHT22;11908;50.806;4.424;2022-08-20T10:56:07;30.20;93.40
23471;DHT22;11908;50.806;4.424;2022-08-20T10:58:33;29.50;94.60
23471;DHT22;11908;50.806;4.424;2022-08-20T11:00:59;29.40;95.90
23471;DHT22;11908;50.806;4.424;2022-08-20T11:03:24;30.00;94.30
23471;DHT22;11908;50.806;4.424;2022-08-20T11:05:50;30.50;94.30
23471;DHT22;11908;50.806;4.424;2022-08-20T11:08:16;31.20;93.60
23471;DHT22;11908;50.806;4.424;2022-08-20T11:10:42;31.70;91.80
23471;DHT22;11908;50.806;4.424;2022-08-20T11:13:08;32.20;92.40
23471;DHT22;11908;50.806;4.424;2022-08-20T11:15:41;32.10;91.00
23471;DHT22;11908;50.806;4.424;2022-08-20T11:18:08;32.30;89.00
23471;DHT22;11908;50.806;4.424;2022-08-20T11:20:34;32.40;87.70
23471;DHT22;11908;50.806;4.424;2022-08-20T11:23:00;32.70;87.80
23471;DHT22;11908;50.806;4.424;2022-08-20T11:25:28;32.30;87.90
23471;DHT22;11908;50.806;4.424;2022-08-20T11:27:55;32.10;89.30
23471;DHT22;11908;50.806;4.424;2022-08-20T11:30:26;31.10;89.00
23471;DHT22;11908;50.806;4.424;2022-08-20T11:32:52;31.00;89.30
23471;DHT22;11908;50.806;4.424;2022-08-20T11:35:19;31.30;88.00
23471;DHT22;11908;50.806;4.424;2022-08-20T11:37:49;31.60;88.40
23471;DHT22;11908;50.806;4.424;2022-08-20T11:40:14;31.90;85.50
23471;DHT22;11908;50.806;4.424;2022-08-20T11:42:40;31.50;86.90
23471;DHT22;11908;50.806;4.424;2022-08-20T11:45:06;30.70;89.30
23471;DHT22;11908;50.806;4.424;2022-08-20T11:47:32;29.80;90.80
23471;DHT22;11908;50.806;4.424;2022-08-20T11:50:10;29.20;91.70
23471;DHT22;11908;50.806;4.424;2022-08-20T11:52:37;29.50;91.60
23471;DHT22;11908;50.806;4.424;2022-08-20T11:55:04;29.50;90.80
23471;DHT22;11908;50.806;4.424;2022-08-20T11:57:32;29.80;91.30
23471;DHT22;11908;50.806;4.424;2022-08-20T12:00:00;29.70;90.50
23471;DHT22;11908;50.806;4.424;2022-08-20T12:02:26;29.00;91.70
23471;DHT22;11908;50.806;4.424;2022-08-20T12:04:52;29.40;92.50
23471;DHT22;11908;50.806;4.424;2022-08-20T12:07:20;29.70;91.40
23471;DHT22;11908;50.806;4.424;2022-08-20T12:09:47;29.90;91.90
23471;DHT22;11908;50.806;4.424;2022-08-20T12:12:14;30.00;91.10
23471;DHT22;11908;50.806;4.424;2022-08-20T12:14:40;29.70;90.30
23471;DHT22;11908;50.806;4.424;2022-08-20T12:17:15;29.30;90.00
23471;DHT22;11908;50.806;4.424;2022-08-20T12:19:44;28.90;91.00
23471;DHT22;11908;50.806;4.424;2022-08-20T12:22:09;29.10;90.90
23471;DHT22;11908;50.806;4.424;2022-08-20T12:24:35;29.50;90.80
23471;DHT22;11908;50.806;4.424;2022-08-20T12:27:11;29.50;90.80
23471;DHT22;11908;50.806;4.424;2022-08-20T12:29:39;29.50;91.30
23471;DHT22;11908;50.806;4.424;2022-08-20T12:32:06;29.50;91.90
23471;DHT22;11908;50.806;4.424;2022-08-20T12:34:35;29.30;90.70
23471;DHT22;11908;50.806;4.424;2022-08-20T12:37:04;29.20;91.10
23471;DHT22;11908;50.806;4.424;2022-08-20T12:39:33;29.10;90.70
23471;DHT22;11908;50.806;4.424;2022-08-20T12:42:02;29.20;90.60
23471;DHT22;11908;50.806;4.424;2022-08-20T12:44:29;29.30;90.80
23471;DHT22;11908;50.806;4.424;2022-08-20T12:47:23;29.30;90.00
23471;DHT22;11908;50.806;4.424;2022-08-20T12:49:55;29.20;89.50
23471;DHT22;11908;50.806;4.424;2022-08-20T12:52:23;28.90;89.90
23471;DHT22;11908;50.806;4.424;2022-08-20T12:54:49;28.90;89.80
23471;DHT22;11908;50.806;4.424;2022-08-20T12:57:25;28.90;90.50
23471;DHT22;11908;50.806;4.424;2022-08-20T12:59:53;28.90;89.80
23471;DHT22;11908;50.806;4.424;2022-08-20T13:02:19;29.00;89.70
23471;DHT22;11908;50.806;4.424;2022-08-20T13:04:45;29.20;88.80
23471;DHT22;11908;50.806;4.424;2022-08-20T13:07:11;29.20;87.00
23471;DHT22;11908;50.806;4.424;2022-08-20T13:09:37;29.10;88.40
23471;DHT22;11908;50.806;4.424;2022-08-20T13:12:03;29.10;87.60
23471;DHT22;11908;50.806;4.424;2022-08-20T13:14:29;29.00;89.20
23471;DHT22;11908;50.806;4.424;2022-08-20T13:16:56;29.10;87.90
23471;DHT22;11908;50.806;4.424;2022-08-20T13:19:22;28.90;88.40
23471;DHT22;11908;50.806;4.424;2022-08-20T13:21:48;28.70;89.20
23471;DHT22;11908;50.806;4.424;2022-08-20T13:24:13;28.50;90.30
23471;DHT22;11908;50.806;4.424;2022-08-20T13:26:39;28.40;90.10
23471;DHT22;11908;50.806;4.424;2022-08-20T13:29:05;28.40;89.40
23471;DHT22;11908;50.806;4.424;2022-08-20T13:31:30;28.50;90.70
23471;DHT22;11908;50.806;4.424;2022-08-20T13:33:56;28.50;90.60
23471;DHT22;11908;50.806;4.424;2022-08-20T13:36:21;28.40;90.50
23471;DHT22;11908;50.806;4.424;2022-08-20T13:38:47;28.30;90.10
23471;DHT22;11908;50.806;4.424;2022-08-20T13:41:13;27.90;90.30
23471;DHT22;11908;50.806;4.424;2022-08-20T13:43:39;27.70;91.70
23471;DHT22;11908;50.806;4.424;2022-08-20T13:46:05;27.90;92.00
23471;DHT22;11908;50.806;4.424;2022-08-20T13:48:31;27.90;91.20
23471;DHT22;11908;50.806;4.424;2022-08-20T13:50:57;28.00;91.50
23471;DHT22;11908;50.806;4.424;2022-08-20T13:53:23;27.90;91.70
23471;DHT22;11908;50.806;4.424;2022-08-20T13:55:49;27.70;92.10
23471;DHT22;11908;50.806;4.424;2022-08-20T13:58:14;27.60;92.50
23471;DHT22;11908;50.806;4.424;2022-08-20T14:00:41;27.60;91.60
23471;DHT22;11908;50.806;4.424;2022-08-20T14:03:07;27.50;92.00
23471;DHT22;11908;50.806;4.424;2022-08-20T14:05:34;27.50;91.50
23471;DHT22;11908;50.806;4.424;2022-08-20T14:10:31;27.80;91.70
23471;DHT22;11908;50.806;4.424;2022-08-20T14:12:58;27.90;91.30
23471;DHT22;11908;50.806;4.424;2022-08-20T14:15:24;27.80;92.00
23471;DHT22;11908;50.806;4.424;2022-08-20T14:17:52;27.70;91.80
23471;DHT22;11908;50.806;4.424;2022-08-20T14:20:20;27.40;92.10
23471;DHT22;11908;50.806;4.424;2022-08-20T14:22:46;27.50;92.20
23471;DHT22;11908;50.806;4.424;2022-08-20T14:25:14;27.40;92.30
23471;DHT22;11908;50.806;4.424;2022-08-20T14:27:40;27.40;92.00
23471;DHT22;11908;50.806;4.424;2022-08-20T14:30:09;27.50;92.10
23471;DHT22;11908;50.806;4.424;2022-08-20T14:32:35;27.40;92.20
23471;DHT22;11908;50.806;4.424;2022-08-20T14:35:01;27.40;92.30
23471;DHT22;11908;50.806;4.424;2022-08-20T14:37:30;27.30;92.00
23471;DHT22;11908;50.806;4.424;2022-08-20T14:39:58;27.10;92.30
23471;DHT22;11908;50.806;4.424;2022-08-20T14:42:25;26.90;92.10
23471;DHT22;11908;50.806;4.424;2022-08-20T14:44:53;26.80;92.80
23471;DHT22;11908;50.806;4.424;2022-08-20T14:47:25;26.70;93.90
23471;DHT22;11908;50.806;4.424;2022-08-20T14:49:53;26.70;92.60
23471;DHT22;11908;50.806;4.424;2022-08-20T14:52:21;26.50;93.80
23471;DHT22;11908;50.806;4.424;2022-08-20T14:54:47;26.40;94.20
23471;DHT22;11908;50.806;4.424;2022-08-20T14:57:14;26.50;93.90
23471;DHT22;11908;50.806;4.424;2022-08-20T14:59:41;26.60;93.20
23471;DHT22;11908;50.806;4.424;2022-08-20T15:02:08;26.60;93.30
23471;DHT22;11908;50.806;4.424;2022-08-20T15:04:35;26.40;92.80
23471;DHT22;11908;50.806;4.424;2022-08-20T15:07:03;26.50;93.70
23471;DHT22;11908;50.806;4.424;2022-08-20T15:09:34;26.60;92.70
23471;DHT22;11908;50.806;4.424;2022-08-20T15:12:00;26.40;92.80
23471;DHT22;11908;50.806;4.424;2022-08-20T15:14:26;26.40;94.00
23471;DHT22;11908;50.806;4.424;2022-08-20T15:16:53;26.20;94.30
23471;DHT22;11908;50.806;4.424;2022-08-20T15:19:19;26.30;94.50
23471;DHT22;11908;50.806;4.424;2022-08-20T15:21:45;26.40;94.50
23471;DHT22;11908;50.806;4.424;2022-08-20T15:24:12;26.60;94.90
23471;DHT22;11908;50.806;4.424;2022-08-20T15:26:38;26.70;94.80
23471;DHT22;11908;50.806;4.424;2022-08-20T15:29:03;26.60;94.30
23471;DHT22;11908;50.806;4.424;2022-08-20T15:31:29;26.40;94.60
23471;DHT22;11908;50.806;4.424;2022-08-20T15:33:55;26.30;96.00
23471;DHT22;11908;50.806;4.424;2022-08-20T15:36:21;26.20;95.70
23471;DHT22;11908;50.806;4.424;2022-08-20T15:38:47;26.00;95.10
23471;DHT22;11908;50.806;4.424;2022-08-20T15:41:13;26.00;95.90